Terminal Aerodrome Forecast
Issued by NWS Twin Cities, MN

Home | Current Version | Previous Version | Text Only | Print | Product List | Glossary Off
Versions: 1 2 3 4 5 6 7 8 9 10 11 12 13 14 15 16 17 18 19 20 21

000
FTUS43 KMPX 171100
TAFSTC
TAF
KSTC 171121Z 1712/1812 32006KT P6SM FEW015 SCT100
     FM171600 34005KT P6SM SCT020 BKN100
     FM180000 VRB03KT P6SM SCT250=

USA.gov is the U.S. government's official web portal to all federal, state and local government web resources and services.